sensor_id;sensor_type;location;lat;lon;timestamp;P1;durP1;ratioP1;P2;durP2;ratioP2
21593;SDS011;10959;51.328;7.322;2023-03-23T00:00:47;3.70;;;2.33;;
21593;SDS011;10959;51.328;7.322;2023-03-23T00:03:14;4.93;;;2.57;;
21593;SDS011;10959;51.328;7.322;2023-03-23T00:05:40;5.77;;;2.47;;
21593;SDS011;10959;51.328;7.322;2023-03-23T00:08:07;3.10;;;2.10;;
21593;SDS011;10959;51.328;7.322;2023-03-23T00:10:38;3.17;;;2.50;;
21593;SDS011;10959;51.328;7.322;2023-03-23T00:13:05;5.60;;;2.47;;
21593;SDS011;10959;51.328;7.322;2023-03-23T00:15:31;3.83;;;2.40;;
21593;SDS011;10959;51.328;7.322;2023-03-23T00:17:58;2.70;;;2.20;;
21593;SDS011;10959;51.328;7.322;2023-03-23T00:20:27;3.87;;;2.60;;
21593;SDS011;10959;51.328;7.322;2023-03-23T00:22:54;3.27;;;2.10;;
21593;SDS011;10959;51.328;7.322;2023-03-23T00:25:25;3.43;;;2.13;;
21593;SDS011;10959;51.328;7.322;2023-03-23T00:27:53;3.43;;;2.03;;
21593;SDS011;10959;51.328;7.322;2023-03-23T00:30:19;2.43;;;1.93;;
21593;SDS011;10959;51.328;7.322;2023-03-23T00:32:47;3.77;;;2.40;;
21593;SDS011;10959;51.328;7.322;2023-03-23T00:35:13;2.67;;;1.90;;
21593;SDS011;10959;51.328;7.322;2023-03-23T00:37:40;3.70;;;2.43;;
21593;SDS011;10959;51.328;7.322;2023-03-23T00:40:09;3.80;;;2.20;;
21593;SDS011;10959;51.328;7.322;2023-03-23T00:42:37;2.20;;;2.00;;
21593;SDS011;10959;51.328;7.322;2023-03-23T00:45:05;2.90;;;2.20;;
21593;SDS011;10959;51.328;7.322;2023-03-23T00:47:35;3.03;;;2.43;;
21593;SDS011;10959;51.328;7.322;2023-03-23T00:50:02;3.40;;;2.20;;
21593;SDS011;10959;51.328;7.322;2023-03-23T00:52:28;2.73;;;2.10;;
21593;SDS011;10959;51.328;7.322;2023-03-23T00:54:55;2.13;;;1.80;;
21593;SDS011;10959;51.328;7.322;2023-03-23T00:57:21;2.13;;;1.70;;
21593;SDS011;10959;51.328;7.322;2023-03-23T00:59:49;2.40;;;2.00;;
21593;SDS011;10959;51.328;7.322;2023-03-23T01:02:17;3.47;;;2.17;;
21593;SDS011;10959;51.328;7.322;2023-03-23T01:04:44;2.07;;;1.77;;
21593;SDS011;10959;51.328;7.322;2023-03-23T01:07:11;4.53;;;2.00;;
21593;SDS011;10959;51.328;7.322;2023-03-23T01:09:38;2.40;;;1.60;;
21593;SDS011;10959;51.328;7.322;2023-03-23T01:12:05;3.13;;;1.73;;
21593;SDS011;10959;51.328;7.322;2023-03-23T01:14:32;2.53;;;1.57;;
21593;SDS011;10959;51.328;7.322;2023-03-23T01:17:01;1.73;;;1.63;;
21593;SDS011;10959;51.328;7.322;2023-03-23T01:19:29;1.80;;;1.60;;
21593;SDS011;10959;51.328;7.322;2023-03-23T01:21:55;2.30;;;1.60;;
21593;SDS011;10959;51.328;7.322;2023-03-23T01:24:22;1.60;;;1.50;;
21593;SDS011;10959;51.328;7.322;2023-03-23T01:26:48;2.07;;;1.67;;
21593;SDS011;10959;51.328;7.322;2023-03-23T01:29:15;2.40;;;1.77;;
21593;SDS011;10959;51.328;7.322;2023-03-23T01:31:41;2.30;;;1.77;;
21593;SDS011;10959;51.328;7.322;2023-03-23T01:34:08;2.67;;;1.80;;
21593;SDS011;10959;51.328;7.322;2023-03-23T01:36:36;3.50;;;1.73;;
21593;SDS011;10959;51.328;7.322;2023-03-23T01:39:04;2.37;;;1.80;;
21593;SDS011;10959;51.328;7.322;2023-03-23T01:41:31;3.77;;;1.67;;
21593;SDS011;10959;51.328;7.322;2023-03-23T01:44:00;2.63;;;1.53;;
21593;SDS011;10959;51.328;7.322;2023-03-23T01:46:29;2.63;;;2.00;;
21593;SDS011;10959;51.328;7.322;2023-03-23T01:48:56;1.97;;;1.77;;
21593;SDS011;10959;51.328;7.322;2023-03-23T01:51:31;2.60;;;1.90;;
21593;SDS011;10959;51.328;7.322;2023-03-23T01:54:00;2.80;;;1.60;;
21593;SDS011;10959;51.328;7.322;2023-03-23T01:56:33;2.47;;;1.50;;
21593;SDS011;10959;51.328;7.322;2023-03-23T01:59:06;2.23;;;1.60;;
21593;SDS011;10959;51.328;7.322;2023-03-23T02:01:33;3.03;;;1.77;;
21593;SDS011;10959;51.328;7.322;2023-03-23T02:04:01;3.97;;;2.07;;
21593;SDS011;10959;51.328;7.322;2023-03-23T02:06:29;2.80;;;1.73;;
21593;SDS011;10959;51.328;7.322;2023-03-23T02:08:55;2.23;;;1.73;;
21593;SDS011;10959;51.328;7.322;2023-03-23T02:11:24;3.07;;;1.73;;
21593;SDS011;10959;51.328;7.322;2023-03-23T02:13:50;2.20;;;1.90;;
21593;SDS011;10959;51.328;7.322;2023-03-23T02:16:20;3.93;;;1.87;;
21593;SDS011;10959;51.328;7.322;2023-03-23T02:18:55;3.33;;;1.83;;
21593;SDS011;10959;51.328;7.322;2023-03-23T02:21:29;1.93;;;1.50;;
21593;SDS011;10959;51.328;7.322;2023-03-23T02:27:28;1.60;;;1.50;;
21593;SDS011;10959;51.328;7.322;2023-03-23T02:30:14;2.03;;;1.83;;
21593;SDS011;10959;51.328;7.322;2023-03-23T02:35:56;3.80;;;1.93;;
21593;SDS011;10959;51.328;7.322;2023-03-23T02:38:27;3.53;;;1.97;;
21593;SDS011;10959;51.328;7.322;2023-03-23T02:40:57;4.10;;;2.07;;
21593;SDS011;10959;51.328;7.322;2023-03-23T02:43:28;2.30;;;2.10;;
21593;SDS011;10959;51.328;7.322;2023-03-23T02:45:58;2.10;;;1.90;;
21593;SDS011;10959;51.328;7.322;2023-03-23T02:48:28;3.80;;;2.30;;
21593;SDS011;10959;51.328;7.322;2023-03-23T02:50:56;2.70;;;1.83;;
21593;SDS011;10959;51.328;7.322;2023-03-23T02:53:25;1.60;;;1.50;;
21593;SDS011;10959;51.328;7.322;2023-03-23T02:55:54;2.93;;;2.00;;
21593;SDS011;10959;51.328;7.322;2023-03-23T02:58:23;3.53;;;2.00;;
21593;SDS011;10959;51.328;7.322;2023-03-23T03:00:51;5.17;;;1.87;;
21593;SDS011;10959;51.328;7.322;2023-03-23T03:03:18;2.27;;;2.07;;
21593;SDS011;10959;51.328;7.322;2023-03-23T03:05:51;2.13;;;1.90;;
21593;SDS011;10959;51.328;7.322;2023-03-23T03:08:26;2.23;;;1.80;;
21593;SDS011;10959;51.328;7.322;2023-03-23T03:11:01;2.47;;;2.00;;
21593;SDS011;10959;51.328;7.322;2023-03-23T03:13:31;2.60;;;1.60;;
21593;SDS011;10959;51.328;7.322;2023-03-23T03:16:06;1.83;;;1.70;;
21593;SDS011;10959;51.328;7.322;2023-03-23T03:18:42;2.80;;;1.83;;
21593;SDS011;10959;51.328;7.322;2023-03-23T03:21:14;1.67;;;1.50;;
21593;SDS011;10959;51.328;7.322;2023-03-23T03:23:45;2.27;;;2.03;;
21593;SDS011;10959;51.328;7.322;2023-03-23T03:26:16;2.07;;;1.60;;
21593;SDS011;10959;51.328;7.322;2023-03-23T03:28:45;3.43;;;1.53;;
21593;SDS011;10959;51.328;7.322;2023-03-23T03:31:13;3.33;;;2.00;;
21593;SDS011;10959;51.328;7.322;2023-03-23T03:33:43;2.23;;;2.03;;
21593;SDS011;10959;51.328;7.322;2023-03-23T03:36:15;3.53;;;1.90;;
21593;SDS011;10959;51.328;7.322;2023-03-23T03:38:45;2.13;;;1.70;;
21593;SDS011;10959;51.328;7.322;2023-03-23T03:41:13;2.70;;;1.80;;
21593;SDS011;10959;51.328;7.322;2023-03-23T03:43:40;1.83;;;1.70;;
21593;SDS011;10959;51.328;7.322;2023-03-23T03:46:07;1.90;;;1.70;;
21593;SDS011;10959;51.328;7.322;2023-03-23T03:48:33;2.27;;;1.83;;
21593;SDS011;10959;51.328;7.322;2023-03-23T03:51:00;2.07;;;1.70;;
21593;SDS011;10959;51.328;7.322;2023-03-23T03:53:29;2.57;;;1.60;;
21593;SDS011;10959;51.328;7.322;2023-03-23T03:55:56;2.20;;;1.77;;
21593;SDS011;10959;51.328;7.322;2023-03-23T03:58:24;1.43;;;1.33;;
21593;SDS011;10959;51.328;7.322;2023-03-23T04:00:56;3.37;;;1.70;;
21593;SDS011;10959;51.328;7.322;2023-03-23T04:03:23;2.37;;;1.77;;
21593;SDS011;10959;51.328;7.322;2023-03-23T04:05:50;3.23;;;1.67;;
21593;SDS011;10959;51.328;7.322;2023-03-23T04:08:17;2.97;;;1.60;;
21593;SDS011;10959;51.328;7.322;2023-03-23T04:10:45;2.63;;;1.10;;
21593;SDS011;10959;51.328;7.322;2023-03-23T04:13:13;2.93;;;1.50;;
21593;SDS011;10959;51.328;7.322;2023-03-23T04:15:40;2.13;;;1.40;;
21593;SDS011;10959;51.328;7.322;2023-03-23T04:18:06;2.13;;;1.63;;
21593;SDS011;10959;51.328;7.322;2023-03-23T04:20:33;2.07;;;1.60;;
21593;SDS011;10959;51.328;7.322;2023-03-23T04:23:00;1.93;;;1.40;;
21593;SDS011;10959;51.328;7.322;2023-03-23T04:25:26;1.70;;;1.60;;
21593;SDS011;10959;51.328;7.322;2023-03-23T04:27:54;1.67;;;1.37;;
21593;SDS011;10959;51.328;7.322;2023-03-23T04:30:23;1.60;;;1.23;;
21593;SDS011;10959;51.328;7.322;2023-03-23T04:32:51;1.43;;;1.30;;
21593;SDS011;10959;51.328;7.322;2023-03-23T04:35:21;3.83;;;1.37;;
21593;SDS011;10959;51.328;7.322;2023-03-23T04:37:49;2.13;;;1.50;;
21593;SDS011;10959;51.328;7.322;2023-03-23T04:40:16;2.03;;;1.50;;
21593;SDS011;10959;51.328;7.322;2023-03-23T04:42:43;1.63;;;1.30;;
21593;SDS011;10959;51.328;7.322;2023-03-23T04:45:15;1.50;;;1.40;;
21593;SDS011;10959;51.328;7.322;2023-03-23T04:47:47;2.97;;;1.57;;
21593;SDS011;10959;51.328;7.322;2023-03-23T04:50:18;1.60;;;1.10;;
21593;SDS011;10959;51.328;7.322;2023-03-23T04:52:45;1.57;;;1.37;;
21593;SDS011;10959;51.328;7.322;2023-03-23T04:55:12;2.03;;;1.37;;
21593;SDS011;10959;51.328;7.322;2023-03-23T04:57:39;2.20;;;1.40;;
21593;SDS011;10959;51.328;7.322;2023-03-23T05:00:06;2.30;;;1.30;;
21593;SDS011;10959;51.328;7.322;2023-03-23T05:02:36;1.60;;;1.20;;
21593;SDS011;10959;51.328;7.322;2023-03-23T05:05:04;1.53;;;1.23;;
21593;SDS011;10959;51.328;7.322;2023-03-23T05:07:31;1.80;;;1.40;;
21593;SDS011;10959;51.328;7.322;2023-03-23T05:09:57;1.20;;;1.03;;
21593;SDS011;10959;51.328;7.322;2023-03-23T05:12:24;1.70;;;1.60;;
21593;SDS011;10959;51.328;7.322;2023-03-23T05:14:51;2.07;;;1.57;;
21593;SDS011;10959;51.328;7.322;2023-03-23T05:17:18;2.30;;;1.53;;
21593;SDS011;10959;51.328;7.322;2023-03-23T05:19:46;1.37;;;1.27;;
21593;SDS011;10959;51.328;7.322;2023-03-23T05:22:12;2.03;;;1.43;;
21593;SDS011;10959;51.328;7.322;2023-03-23T05:24:39;1.47;;;1.37;;
21593;SDS011;10959;51.328;7.322;2023-03-23T05:27:07;1.70;;;1.60;;
21593;SDS011;10959;51.328;7.322;2023-03-23T05:29:34;1.60;;;1.37;;
21593;SDS011;10959;51.328;7.322;2023-03-23T05:32:01;1.67;;;1.43;;
21593;SDS011;10959;51.328;7.322;2023-03-23T05:34:28;3.87;;;1.47;;
21593;SDS011;10959;51.328;7.322;2023-03-23T05:36:58;2.17;;;1.70;;
21593;SDS011;10959;51.328;7.322;2023-03-23T05:39:25;2.17;;;1.30;;
21593;SDS011;10959;51.328;7.322;2023-03-23T05:41:52;1.87;;;1.60;;
21593;SDS011;10959;51.328;7.322;2023-03-23T05:44:18;2.33;;;2.00;;
21593;SDS011;10959;51.328;7.322;2023-03-23T05:46:45;1.93;;;1.70;;
21593;SDS011;10959;51.328;7.322;2023-03-23T05:49:11;2.50;;;1.80;;
21593;SDS011;10959;51.328;7.322;2023-03-23T05:51:38;2.37;;;1.57;;
21593;SDS011;10959;51.328;7.322;2023-03-23T05:54:07;2.27;;;1.50;;
21593;SDS011;10959;51.328;7.322;2023-03-23T05:56:35;1.80;;;1.40;;
21593;SDS011;10959;51.328;7.322;2023-03-23T05:59:01;1.87;;;1.70;;
21593;SDS011;10959;51.328;7.322;2023-03-23T06:01:28;1.80;;;1.70;;
21593;SDS011;10959;51.328;7.322;2023-03-23T06:03:56;2.10;;;1.90;;
21593;SDS011;10959;51.328;7.322;2023-03-23T06:06:23;3.37;;;1.63;;
21593;SDS011;10959;51.328;7.322;2023-03-23T06:08:50;1.83;;;1.63;;
21593;SDS011;10959;51.328;7.322;2023-03-23T06:11:19;2.67;;;1.60;;
21593;SDS011;10959;51.328;7.322;2023-03-23T06:13:45;1.63;;;1.53;;
21593;SDS011;10959;51.328;7.322;2023-03-23T06:16:12;2.87;;;1.73;;
21593;SDS011;10959;51.328;7.322;2023-03-23T06:18:39;1.53;;;1.40;;
21593;SDS011;10959;51.328;7.322;2023-03-23T06:21:07;1.80;;;1.60;;
21593;SDS011;10959;51.328;7.322;2023-03-23T06:23:34;2.70;;;1.93;;
21593;SDS011;10959;51.328;7.322;2023-03-23T06:26:02;2.43;;;1.60;;
21593;SDS011;10959;51.328;7.322;2023-03-23T06:28:32;2.10;;;1.90;;
21593;SDS011;10959;51.328;7.322;2023-03-23T06:30:59;2.67;;;1.87;;
21593;SDS011;10959;51.328;7.322;2023-03-23T06:33:26;2.80;;;1.60;;
21593;SDS011;10959;51.328;7.322;2023-03-23T06:35:53;2.57;;;1.60;;
21593;SDS011;10959;51.328;7.322;2023-03-23T06:38:20;2.20;;;1.77;;
21593;SDS011;10959;51.328;7.322;2023-03-23T06:40:47;2.47;;;1.70;;
21593;SDS011;10959;51.328;7.322;2023-03-23T06:43:14;2.53;;;1.97;;
21593;SDS011;10959;51.328;7.322;2023-03-23T06:45:42;2.57;;;1.90;;
21593;SDS011;10959;51.328;7.322;2023-03-23T06:48:08;3.07;;;1.53;;
21593;SDS011;10959;51.328;7.322;2023-03-23T06:50:35;2.00;;;1.57;;
21593;SDS011;10959;51.328;7.322;2023-03-23T06:53:01;2.63;;;1.77;;
21593;SDS011;10959;51.328;7.322;2023-03-23T06:55:27;4.83;;;1.70;;
21593;SDS011;10959;51.328;7.322;2023-03-23T06:57:54;3.10;;;1.73;;
21593;SDS011;10959;51.328;7.322;2023-03-23T07:00:20;2.37;;;1.60;;
21593;SDS011;10959;51.328;7.322;2023-03-23T07:02:48;2.93;;;1.73;;
21593;SDS011;10959;51.328;7.322;2023-03-23T07:05:15;2.10;;;1.67;;
21593;SDS011;10959;51.328;7.322;2023-03-23T07:07:41;3.53;;;1.50;;
21593;SDS011;10959;51.328;7.322;2023-03-23T07:10:08;2.77;;;1.43;;
21593;SDS011;10959;51.328;7.322;2023-03-23T07:12:36;3.10;;;1.90;;
21593;SDS011;10959;51.328;7.322;2023-03-23T07:15:03;3.00;;;1.60;;
21593;SDS011;10959;51.328;7.322;2023-03-23T07:17:30;2.67;;;1.73;;
21593;SDS011;10959;51.328;7.322;2023-03-23T07:19:58;2.30;;;1.47;;
21593;SDS011;10959;51.328;7.322;2023-03-23T07:22:25;3.30;;;1.83;;
21593;SDS011;10959;51.328;7.322;2023-03-23T07:24:54;3.43;;;1.70;;
21593;SDS011;10959;51.328;7.322;2023-03-23T07:27:21;3.73;;;2.07;;
21593;SDS011;10959;51.328;7.322;2023-03-23T07:29:47;4.23;;;2.13;;
21593;SDS011;10959;51.328;7.322;2023-03-23T07:32:14;3.17;;;1.73;;
21593;SDS011;10959;51.328;7.322;2023-03-23T07:34:40;4.10;;;1.60;;
21593;SDS011;10959;51.328;7.322;2023-03-23T07:37:09;3.00;;;1.80;;
21593;SDS011;10959;51.328;7.322;2023-03-23T07:39:35;4.03;;;2.00;;
21593;SDS011;10959;51.328;7.322;2023-03-23T07:42:02;2.23;;;1.43;;
21593;SDS011;10959;51.328;7.322;2023-03-23T07:44:29;2.97;;;1.70;;
21593;SDS011;10959;51.328;7.322;2023-03-23T07:46:55;1.87;;;1.17;;
21593;SDS011;10959;51.328;7.322;2023-03-23T07:49:22;2.20;;;1.60;;
21593;SDS011;10959;51.328;7.322;2023-03-23T07:51:49;2.23;;;1.30;;
21593;SDS011;10959;51.328;7.322;2023-03-23T07:54:17;2.30;;;1.60;;
21593;SDS011;10959;51.328;7.322;2023-03-23T07:56:43;3.23;;;1.40;;
21593;SDS011;10959;51.328;7.322;2023-03-23T07:59:11;2.47;;;1.40;;
21593;SDS011;10959;51.328;7.322;2023-03-23T08:01:38;2.53;;;1.50;;
21593;SDS011;10959;51.328;7.322;2023-03-23T08:04:04;1.63;;;1.33;;
21593;SDS011;10959;51.328;7.322;2023-03-23T08:06:33;2.27;;;1.50;;
21593;SDS011;10959;51.328;7.322;2023-03-23T08:09:00;3.07;;;1.70;;
21593;SDS011;10959;51.328;7.322;2023-03-23T08:11:32;4.93;;;1.80;;
21593;SDS011;10959;51.328;7.322;2023-03-23T08:13:59;1.97;;;1.50;;
21593;SDS011;10959;51.328;7.322;2023-03-23T08:16:25;2.37;;;1.43;;
21593;SDS011;10959;51.328;7.322;2023-03-23T08:18:52;2.47;;;1.90;;
21593;SDS011;10959;51.328;7.322;2023-03-23T08:21:19;2.97;;;1.70;;
21593;SDS011;10959;51.328;7.322;2023-03-23T08:23:47;3.13;;;2.27;;
21593;SDS011;10959;51.328;7.322;2023-03-23T08:26:13;2.93;;;1.50;;
21593;SDS011;10959;51.328;7.322;2023-03-23T08:28:43;4.03;;;1.77;;
21593;SDS011;10959;51.328;7.322;2023-03-23T08:31:10;3.97;;;1.60;;
21593;SDS011;10959;51.328;7.322;2023-03-23T08:33:40;2.57;;;1.73;;
21593;SDS011;10959;51.328;7.322;2023-03-23T08:36:07;2.20;;;1.50;;
21593;SDS011;10959;51.328;7.322;2023-03-23T08:38:34;3.93;;;1.30;;
21593;SDS011;10959;51.328;7.322;2023-03-23T08:41:02;2.93;;;1.43;;
21593;SDS011;10959;51.328;7.322;2023-03-23T08:43:30;2.53;;;1.50;;
21593;SDS011;10959;51.328;7.322;2023-03-23T08:45:58;4.17;;;1.87;;
21593;SDS011;10959;51.328;7.322;2023-03-23T08:48:25;5.67;;;1.70;;
21593;SDS011;10959;51.328;7.322;2023-03-23T08:50:51;4.37;;;1.30;;
21593;SDS011;10959;51.328;7.322;2023-03-23T08:53:18;2.07;;;1.40;;
21593;SDS011;10959;51.328;7.322;2023-03-23T08:55:45;1.83;;;1.33;;
21593;SDS011;10959;51.328;7.322;2023-03-23T08:58:12;2.17;;;1.40;;
21593;SDS011;10959;51.328;7.322;2023-03-23T09:00:38;2.67;;;1.50;;
21593;SDS011;10959;51.328;7.322;2023-03-23T09:03:06;1.70;;;1.40;;
21593;SDS011;10959;51.328;7.322;2023-03-23T09:05:33;2.53;;;1.40;;
21593;SDS011;10959;51.328;7.322;2023-03-23T09:08:00;2.87;;;1.47;;
21593;SDS011;10959;51.328;7.322;2023-03-23T09:10:28;4.23;;;1.63;;
21593;SDS011;10959;51.328;7.322;2023-03-23T09:12:56;2.60;;;1.47;;
21593;SDS011;10959;51.328;7.322;2023-03-23T09:15:22;4.27;;;1.47;;
21593;SDS011;10959;51.328;7.322;2023-03-23T09:17:50;2.63;;;1.40;;
21593;SDS011;10959;51.328;7.322;2023-03-23T09:20:19;3.40;;;1.47;;
21593;SDS011;10959;51.328;7.322;2023-03-23T09:22:48;3.73;;;1.73;;
21593;SDS011;10959;51.328;7.322;2023-03-23T09:25:17;4.37;;;1.80;;
21593;SDS011;10959;51.328;7.322;2023-03-23T09:27:47;3.57;;;2.30;;
21593;SDS011;10959;51.328;7.322;2023-03-23T09:30:17;6.07;;;2.40;;
21593;SDS011;10959;51.328;7.322;2023-03-23T09:32:45;4.07;;;2.57;;
21593;SDS011;10959;51.328;7.322;2023-03-23T09:35:13;4.67;;;2.00;;
21593;SDS011;10959;51.328;7.322;2023-03-23T09:37:42;4.27;;;1.50;;
21593;SDS011;10959;51.328;7.322;2023-03-23T09:40:11;3.17;;;1.60;;
21593;SDS011;10959;51.328;7.322;2023-03-23T09:42:44;2.80;;;1.40;;
21593;SDS011;10959;51.328;7.322;2023-03-23T09:45:29;4.20;;;1.80;;
21593;SDS011;10959;51.328;7.322;2023-03-23T09:48:05;2.70;;;1.40;;
21593;SDS011;10959;51.328;7.322;2023-03-23T09:50:41;4.47;;;1.80;;
21593;SDS011;10959;51.328;7.322;2023-03-23T09:53:14;4.20;;;2.00;;
21593;SDS011;10959;51.328;7.322;2023-03-23T09:55:45;4.67;;;1.50;;
21593;SDS011;10959;51.328;7.322;2023-03-23T09:58:14;3.30;;;1.53;;
21593;SDS011;10959;51.328;7.322;2023-03-23T10:00:46;4.70;;;1.73;;
21593;SDS011;10959;51.328;7.322;2023-03-23T10:03:16;4.60;;;1.40;;
21593;SDS011;10959;51.328;7.322;2023-03-23T10:05:45;8.27;;;2.00;;
21593;SDS011;10959;51.328;7.322;2023-03-23T10:08:17;6.23;;;1.70;;
21593;SDS011;10959;51.328;7.322;2023-03-23T10:10:47;5.33;;;2.03;;
21593;SDS011;10959;51.328;7.322;2023-03-23T10:13:25;3.47;;;1.13;;
21593;SDS011;10959;51.328;7.322;2023-03-23T10:16:07;4.30;;;1.90;;
21593;SDS011;10959;51.328;7.322;2023-03-23T10:18:37;4.00;;;1.97;;
21593;SDS011;10959;51.328;7.322;2023-03-23T10:21:09;7.47;;;1.97;;
21593;SDS011;10959;51.328;7.322;2023-03-23T10:23:43;5.20;;;1.80;;
21593;SDS011;10959;51.328;7.322;2023-03-23T10:26:20;5.97;;;1.70;;
21593;SDS011;10959;51.328;7.322;2023-03-23T10:28:54;5.57;;;1.47;;
21593;SDS011;10959;51.328;7.322;2023-03-23T10:31:27;3.23;;;1.43;;
21593;SDS011;10959;51.328;7.322;2023-03-23T10:33:58;3.70;;;1.33;;
21593;SDS011;10959;51.328;7.322;2023-03-23T10:36:29;5.33;;;1.63;;
21593;SDS011;10959;51.328;7.322;2023-03-23T10:39:03;3.83;;;1.70;;
21593;SDS011;10959;51.328;7.322;2023-03-23T10:41:36;5.73;;;1.60;;
21593;SDS011;10959;51.328;7.322;2023-03-23T10:44:06;3.53;;;1.30;;
21593;SDS011;10959;51.328;7.322;2023-03-23T10:46:38;2.27;;;1.00;;
21593;SDS011;10959;51.328;7.322;2023-03-23T10:49:13;2.73;;;0.63;;
21593;SDS011;10959;51.328;7.322;2023-03-23T10:51:53;1.77;;;0.50;;
21593;SDS011;10959;51.328;7.322;2023-03-23T10:54:32;1.00;;;0.53;;
21593;SDS011;10959;51.328;7.322;2023-03-23T10:57:12;0.87;;;0.50;;
21593;SDS011;10959;51.328;7.322;2023-03-23T10:59:40;1.80;;;0.60;;
21593;SDS011;10959;51.328;7.322;2023-03-23T11:02:07;1.57;;;0.73;;
21593;SDS011;10959;51.328;7.322;2023-03-23T11:04:44;1.60;;;0.57;;
21593;SDS011;10959;51.328;7.322;2023-03-23T11:07:13;1.53;;;0.83;;
21593;SDS011;10959;51.328;7.322;2023-03-23T11:09:52;1.70;;;0.80;;
21593;SDS011;10959;51.328;7.322;2023-03-23T11:12:20;1.30;;;0.60;;
21593;SDS011;10959;51.328;7.322;2023-03-23T11:14:48;0.87;;;0.60;;
21593;SDS011;10959;51.328;7.322;2023-03-23T11:17:19;2.90;;;1.47;;
21593;SDS011;10959;51.328;7.322;2023-03-23T11:19:48;3.67;;;1.17;;
21593;SDS011;10959;51.328;7.322;2023-03-23T11:22:17;1.40;;;0.90;;
21593;SDS011;10959;51.328;7.322;2023-03-23T11:24:52;1.17;;;0.70;;
21593;SDS011;10959;51.328;7.322;2023-03-23T11:27:20;1.87;;;0.87;;
21593;SDS011;10959;51.328;7.322;2023-03-23T11:29:48;2.37;;;0.90;;
21593;SDS011;10959;51.328;7.322;2023-03-23T11:32:18;0.97;;;0.60;;
21593;SDS011;10959;51.328;7.322;2023-03-23T11:34:48;1.00;;;0.70;;
21593;SDS011;10959;51.328;7.322;2023-03-23T11:37:19;1.63;;;0.80;;
21593;SDS011;10959;51.328;7.322;2023-03-23T11:39:54;2.63;;;1.07;;
21593;SDS011;10959;51.328;7.322;2023-03-23T11:42:23;1.50;;;0.87;;
21593;SDS011;10959;51.328;7.322;2023-03-23T11:44:53;1.70;;;1.00;;
21593;SDS011;10959;51.328;7.322;2023-03-23T11:47:22;4.10;;;2.07;;
21593;SDS011;10959;51.328;7.322;2023-03-23T11:49:55;3.70;;;1.93;;
21593;SDS011;10959;51.328;7.322;2023-03-23T11:52:30;3.10;;;2.20;;
21593;SDS011;10959;51.328;7.322;2023-03-23T11:55:07;3.20;;;1.80;;
21593;SDS011;10959;51.328;7.322;2023-03-23T11:57:39;1.80;;;1.30;;
21593;SDS011;10959;51.328;7.322;2023-03-23T12:00:11;1.17;;;1.03;;
21593;SDS011;10959;51.328;7.322;2023-03-23T12:02:42;1.37;;;0.97;;
21593;SDS011;10959;51.328;7.322;2023-03-23T12:05:32;1.70;;;1.10;;
21593;SDS011;10959;51.328;7.322;2023-03-23T12:08:06;2.20;;;1.30;;
21593;SDS011;10959;51.328;7.322;2023-03-23T12:10:44;2.63;;;1.93;;
21593;SDS011;10959;51.328;7.322;2023-03-23T12:16:09;2.93;;;2.63;;
21593;SDS011;10959;51.328;7.322;2023-03-23T12:18:46;3.03;;;2.73;;
21593;SDS011;10959;51.328;7.322;2023-03-23T12:21:18;3.03;;;2.40;;
21593;SDS011;10959;51.328;7.322;2023-03-23T12:23:54;2.53;;;2.33;;
21593;SDS011;10959;51.328;7.322;2023-03-23T12:26:30;1.77;;;1.67;;
21593;SDS011;10959;51.328;7.322;2023-03-23T12:29:12;2.77;;;2.37;;
21593;SDS011;10959;51.328;7.322;2023-03-23T12:31:49;3.07;;;2.30;;
21593;SDS011;10959;51.328;7.322;2023-03-23T12:34:28;2.37;;;2.17;;
21593;SDS011;10959;51.328;7.322;2023-03-23T12:37:10;2.53;;;1.90;;
21593;SDS011;10959;51.328;7.322;2023-03-23T12:39:55;2.67;;;2.20;;
21593;SDS011;10959;51.328;7.322;2023-03-23T12:42:53;2.30;;;2.10;;
21593;SDS011;10959;51.328;7.322;2023-03-23T12:45:26;2.57;;;2.37;;
21593;SDS011;10959;51.328;7.322;2023-03-23T12:48:13;4.47;;;3.97;;
21593;SDS011;10959;51.328;7.322;2023-03-23T12:50:44;3.30;;;3.00;;
21593;SDS011;10959;51.328;7.322;2023-03-23T12:53:27;3.10;;;2.80;;
21593;SDS011;10959;51.328;7.322;2023-03-23T12:56:04;2.83;;;2.53;;
21593;SDS011;10959;51.328;7.322;2023-03-23T12:58:40;2.40;;;2.20;;
21593;SDS011;10959;51.328;7.322;2023-03-23T13:01:11;3.23;;;2.40;;
21593;SDS011;10959;51.328;7.322;2023-03-23T13:03:47;3.60;;;3.00;;
21593;SDS011;10959;51.328;7.322;2023-03-23T13:06:19;3.97;;;3.13;;
21593;SDS011;10959;51.328;7.322;2023-03-23T13:08:50;3.47;;;3.17;;
21593;SDS011;10959;51.328;7.322;2023-03-23T13:11:22;4.47;;;4.07;;
21593;SDS011;10959;51.328;7.322;2023-03-23T13:13:57;6.87;;;5.80;;
21593;SDS011;10959;51.328;7.322;2023-03-23T13:16:32;5.00;;;4.33;;
21593;SDS011;10959;51.328;7.322;2023-03-23T13:19:08;4.93;;;4.00;;
21593;SDS011;10959;51.328;7.322;2023-03-23T13:21:41;3.80;;;3.40;;
21593;SDS011;10959;51.328;7.322;2023-03-23T13:24:15;4.27;;;3.87;;
21593;SDS011;10959;51.328;7.322;2023-03-23T13:26:45;3.97;;;3.40;;
21593;SDS011;10959;51.328;7.322;2023-03-23T13:29:14;4.57;;;3.80;;
21593;SDS011;10959;51.328;7.322;2023-03-23T13:31:45;4.23;;;3.33;;
21593;SDS011;10959;51.328;7.322;2023-03-23T13:34:15;4.43;;;4.03;;
21593;SDS011;10959;51.328;7.322;2023-03-23T13:36:45;4.10;;;3.37;;
21593;SDS011;10959;51.328;7.322;2023-03-23T13:39:20;5.10;;;4.60;;
21593;SDS011;10959;51.328;7.322;2023-03-23T13:42:01;6.27;;;5.57;;
21593;SDS011;10959;51.328;7.322;2023-03-23T13:44:41;5.67;;;5.17;;
21593;SDS011;10959;51.328;7.322;2023-03-23T13:47:16;6.20;;;5.67;;
21593;SDS011;10959;51.328;7.322;2023-03-23T13:49:49;7.40;;;6.70;;
21593;SDS011;10959;51.328;7.322;2023-03-23T13:52:18;7.53;;;6.73;;
21593;SDS011;10959;51.328;7.322;2023-03-23T13:54:50;9.03;;;8.13;;
21593;SDS011;10959;51.328;7.322;2023-03-23T13:57:19;7.53;;;6.90;;
21593;SDS011;10959;51.328;7.322;2023-03-23T13:59:56;8.47;;;7.57;;
21593;SDS011;10959;51.328;7.322;2023-03-23T14:02:32;7.63;;;6.80;;
21593;SDS011;10959;51.328;7.322;2023-03-23T14:05:11;8.23;;;7.53;;
21593;SDS011;10959;51.328;7.322;2023-03-23T14:07:57;8.17;;;7.27;;
21593;SDS011;10959;51.328;7.322;2023-03-23T14:10:30;7.93;;;7.03;;
21593;SDS011;10959;51.328;7.322;2023-03-23T14:12:59;8.07;;;7.30;;
21593;SDS011;10959;51.328;7.322;2023-03-23T14:15:29;8.27;;;7.33;;
21593;SDS011;10959;51.328;7.322;2023-03-23T14:17:57;7.73;;;6.60;;
21593;SDS011;10959;51.328;7.322;2023-03-23T14:20:29;7.53;;;6.73;;
21593;SDS011;10959;51.328;7.322;2023-03-23T14:22:58;7.03;;;6.33;;
21593;SDS011;10959;51.328;7.322;2023-03-23T14:25:26;8.00;;;6.17;;
21593;SDS011;10959;51.328;7.322;2023-03-23T14:27:56;8.37;;;7.43;;
21593;SDS011;10959;51.328;7.322;2023-03-23T14:30:23;6.93;;;6.27;;
21593;SDS011;10959;51.328;7.322;2023-03-23T14:32:53;8.73;;;7.77;;
21593;SDS011;10959;51.328;7.322;2023-03-23T14:35:29;7.23;;;6.53;;
21593;SDS011;10959;51.328;7.322;2023-03-23T14:37:57;11.57;;;7.03;;
21593;SDS011;10959;51.328;7.322;2023-03-23T14:40:26;7.53;;;5.80;;
21593;SDS011;10959;51.328;7.322;2023-03-23T14:42:54;6.53;;;4.70;;
21593;SDS011;10959;51.328;7.322;2023-03-23T14:45:22;6.20;;;4.33;;
21593;SDS011;10959;51.328;7.322;2023-03-23T14:47:53;4.60;;;4.17;;
21593;SDS011;10959;51.328;7.322;2023-03-23T14:50:23;5.73;;;4.07;;
21593;SDS011;10959;51.328;7.322;2023-03-23T14:52:53;5.10;;;3.53;;
21593;SDS011;10959;51.328;7.322;2023-03-23T14:55:22;2.83;;;2.50;;
21593;SDS011;10959;51.328;7.322;2023-03-23T14:57:51;4.30;;;3.00;;
21593;SDS011;10959;51.328;7.322;2023-03-23T15:00:18;3.23;;;2.50;;
21593;SDS011;10959;51.328;7.322;2023-03-23T15:02:48;6.77;;;2.97;;
21593;SDS011;10959;51.328;7.322;2023-03-23T15:05:21;7.67;;;4.10;;
21593;SDS011;10959;51.328;7.322;2023-03-23T15:07:52;7.10;;;3.30;;
21593;SDS011;10959;51.328;7.322;2023-03-23T15:10:22;5.73;;;2.63;;
21593;SDS011;10959;51.328;7.322;2023-03-23T15:12:50;3.80;;;2.47;;